sensor_id;sensor_type;location;lat;lon;timestamp;P1;durP1;ratioP1;P2;durP2;ratioP2
59984;SDS011;45843;47.532;18.660;2022-12-24T00:00:07;0.25;;;0.25;;
59984;SDS011;45843;47.532;18.660;2022-12-24T00:03:13;0.20;;;0.20;;
59984;SDS011;45843;47.532;18.660;2022-12-24T00:06:21;0.10;;;0.10;;
59984;SDS011;45843;47.532;18.660;2022-12-24T00:09:26;0.10;;;0.10;;
59984;SDS011;45843;47.532;18.660;2022-12-24T00:12:32;0.20;;;0.20;;
59984;SDS011;45843;47.532;18.660;2022-12-24T00:15:38;0.10;;;0.10;;
59984;SDS011;45843;47.532;18.660;2022-12-24T00:18:44;0.10;;;0.10;;
59984;SDS011;45843;47.532;18.660;2022-12-24T00:21:11;0.15;;;0.15;;
59984;SDS011;45843;47.532;18.660;2022-12-24T00:23:38;0.20;;;0.20;;
59984;SDS011;45843;47.532;18.660;2022-12-24T00:26:05;0.10;;;0.10;;
59984;SDS011;45843;47.532;18.660;2022-12-24T00:28:32;0.20;;;0.20;;
59984;SDS011;45843;47.532;18.660;2022-12-24T00:30:58;0.22;;;0.22;;
59984;SDS011;45843;47.532;18.660;2022-12-24T00:33:25;0.20;;;0.20;;
59984;SDS011;45843;47.532;18.660;2022-12-24T00:35:51;0.20;;;0.20;;
59984;SDS011;45843;47.532;18.660;2022-12-24T00:38:18;0.20;;;0.20;;
59984;SDS011;45843;47.532;18.660;2022-12-24T00:40:44;0.10;;;0.10;;
59984;SDS011;45843;47.532;18.660;2022-12-24T00:43:11;0.10;;;0.10;;
59984;SDS011;45843;47.532;18.660;2022-12-24T00:45:37;0.20;;;0.20;;
59984;SDS011;45843;47.532;18.660;2022-12-24T00:48:43;0.20;;;0.20;;
59984;SDS011;45843;47.532;18.660;2022-12-24T00:51:50;0.35;;;0.35;;
59984;SDS011;45843;47.532;18.660;2022-12-24T00:54:56;0.20;;;0.20;;
59984;SDS011;45843;47.532;18.660;2022-12-24T00:58:02;0.32;;;0.32;;
59984;SDS011;45843;47.532;18.660;2022-12-24T01:01:08;0.38;;;0.38;;
59984;SDS011;45843;47.532;18.660;2022-12-24T01:04:15;0.52;;;0.52;;
59984;SDS011;45843;47.532;18.660;2022-12-24T01:07:20;0.55;;;0.55;;
59984;SDS011;45843;47.532;18.660;2022-12-24T01:10:26;0.20;;;0.20;;
59984;SDS011;45843;47.532;18.660;2022-12-24T01:13:32;0.47;;;0.47;;
59984;SDS011;45843;47.532;18.660;2022-12-24T01:16:38;0.80;;;0.52;;
59984;SDS011;45843;47.532;18.660;2022-12-24T01:19:45;0.10;;;0.10;;
59984;SDS011;45843;47.532;18.660;2022-12-24T01:22:13;0.45;;;0.45;;
59984;SDS011;45843;47.532;18.660;2022-12-24T01:24:39;0.28;;;0.28;;
59984;SDS011;45843;47.532;18.660;2022-12-24T01:27:06;0.70;;;0.70;;
59984;SDS011;45843;47.532;18.660;2022-12-24T01:29:34;0.32;;;0.30;;
59984;SDS011;45843;47.532;18.660;2022-12-24T01:32:01;0.93;;;0.73;;
59984;SDS011;45843;47.532;18.660;2022-12-24T01:34:27;0.65;;;0.65;;
59984;SDS011;45843;47.532;18.660;2022-12-24T01:36:55;0.93;;;0.75;;
59984;SDS011;45843;47.532;18.660;2022-12-24T01:39:22;2.88;;;1.55;;
59984;SDS011;45843;47.532;18.660;2022-12-24T01:41:48;0.38;;;0.38;;
59984;SDS011;45843;47.532;18.660;2022-12-24T01:44:35;0.40;;;0.40;;
59984;SDS011;45843;47.532;18.660;2022-12-24T01:49:30;0.45;;;0.30;;
59984;SDS011;45843;47.532;18.660;2022-12-24T01:51:59;0.95;;;0.60;;
59984;SDS011;45843;47.532;18.660;2022-12-24T01:54:37;1.10;;;1.00;;
59984;SDS011;45843;47.532;18.660;2022-12-24T01:57:24;0.73;;;0.70;;
59984;SDS011;45843;47.532;18.660;2022-12-24T01:59:54;0.60;;;0.60;;
59984;SDS011;45843;47.532;18.660;2022-12-24T02:02:20;0.10;;;0.10;;
59984;SDS011;45843;47.532;18.660;2022-12-24T02:04:55;0.20;;;0.20;;
59984;SDS011;45843;47.532;18.660;2022-12-24T02:07:23;0.40;;;0.40;;
59984;SDS011;45843;47.532;18.660;2022-12-24T02:09:52;0.20;;;0.20;;
59984;SDS011;45843;47.532;18.660;2022-12-24T02:12:18;0.70;;;0.55;;
59984;SDS011;45843;47.532;18.660;2022-12-24T02:14:45;0.40;;;0.40;;
59984;SDS011;45843;47.532;18.660;2022-12-24T02:17:17;0.45;;;0.45;;
59984;SDS011;45843;47.532;18.660;2022-12-24T02:32:12;0.20;;;0.20;;
59984;SDS011;45843;47.532;18.660;2022-12-24T02:34:50;0.28;;;0.28;;
59984;SDS011;45843;47.532;18.660;2022-12-24T02:37:27;0.20;;;0.20;;
59984;SDS011;45843;47.532;18.660;2022-12-24T02:39:58;0.10;;;0.10;;
59984;SDS011;45843;47.532;18.660;2022-12-24T02:42:28;0.10;;;0.10;;
59984;SDS011;45843;47.532;18.660;2022-12-24T02:44:58;0.10;;;0.10;;
59984;SDS011;45843;47.532;18.660;2022-12-24T02:47:27;0.30;;;0.30;;
59984;SDS011;45843;47.532;18.660;2022-12-24T02:49:54;0.10;;;0.10;;
59984;SDS011;45843;47.532;18.660;2022-12-24T02:57:36;0.20;;;0.20;;
59984;SDS011;45843;47.532;18.660;2022-12-24T03:00:09;0.22;;;0.22;;
59984;SDS011;45843;47.532;18.660;2022-12-24T03:07:45;0.40;;;0.40;;
59984;SDS011;45843;47.532;18.660;2022-12-24T03:12:45;0.52;;;0.52;;
59984;SDS011;45843;47.532;18.660;2022-12-24T03:15:13;0.30;;;0.30;;
59984;SDS011;45843;47.532;18.660;2022-12-24T03:17:41;0.47;;;0.35;;
59984;SDS011;45843;47.532;18.660;2022-12-24T03:20:09;0.15;;;0.15;;
59984;SDS011;45843;47.532;18.660;2022-12-24T03:22:36;0.10;;;0.10;;
59984;SDS011;45843;47.532;18.660;2022-12-24T03:25:04;0.20;;;0.20;;
59984;SDS011;45843;47.532;18.660;2022-12-24T03:27:31;0.20;;;0.20;;
59984;SDS011;45843;47.532;18.660;2022-12-24T03:29:59;0.17;;;0.17;;
59984;SDS011;45843;47.532;18.660;2022-12-24T03:32:29;0.10;;;0.10;;
59984;SDS011;45843;47.532;18.660;2022-12-24T03:34:57;0.30;;;0.30;;
59984;SDS011;45843;47.532;18.660;2022-12-24T03:37:23;0.30;;;0.30;;
59984;SDS011;45843;47.532;18.660;2022-12-24T03:39:51;0.95;;;0.88;;
59984;SDS011;45843;47.532;18.660;2022-12-24T03:42:17;0.80;;;0.63;;
59984;SDS011;45843;47.532;18.660;2022-12-24T03:44:45;0.88;;;0.85;;
59984;SDS011;45843;47.532;18.660;2022-12-24T03:47:11;1.58;;;1.25;;
59984;SDS011;45843;47.532;18.660;2022-12-24T03:49:38;1.15;;;1.08;;
59984;SDS011;45843;47.532;18.660;2022-12-24T03:52:07;0.40;;;0.40;;
59984;SDS011;45843;47.532;18.660;2022-12-24T03:54:34;0.20;;;0.20;;
59984;SDS011;45843;47.532;18.660;2022-12-24T03:57:00;1.15;;;1.05;;
59984;SDS011;45843;47.532;18.660;2022-12-24T03:59:29;1.83;;;1.30;;
59984;SDS011;45843;47.532;18.660;2022-12-24T04:01:55;0.13;;;0.13;;
59984;SDS011;45843;47.532;18.660;2022-12-24T04:04:22;0.10;;;0.10;;
59984;SDS011;45843;47.532;18.660;2022-12-24T04:06:51;0.10;;;0.10;;
59984;SDS011;45843;47.532;18.660;2022-12-24T04:09:17;0.10;;;0.10;;
59984;SDS011;45843;47.532;18.660;2022-12-24T04:11:44;0.20;;;0.20;;
59984;SDS011;45843;47.532;18.660;2022-12-24T04:14:11;0.20;;;0.20;;
59984;SDS011;45843;47.532;18.660;2022-12-24T04:16:38;0.10;;;0.10;;
59984;SDS011;45843;47.532;18.660;2022-12-24T04:19:04;0.10;;;0.10;;
59984;SDS011;45843;47.532;18.660;2022-12-24T04:21:32;0.20;;;0.20;;
59984;SDS011;45843;47.532;18.660;2022-12-24T04:23:58;0.10;;;0.10;;
59984;SDS011;45843;47.532;18.660;2022-12-24T04:26:26;0.10;;;0.10;;
59984;SDS011;45843;47.532;18.660;2022-12-24T04:28:54;0.10;;;0.10;;
59984;SDS011;45843;47.532;18.660;2022-12-24T04:31:20;0.10;;;0.10;;
59984;SDS011;45843;47.532;18.660;2022-12-24T04:33:49;0.20;;;0.20;;
59984;SDS011;45843;47.532;18.660;2022-12-24T04:36:16;0.20;;;0.20;;
59984;SDS011;45843;47.532;18.660;2022-12-24T04:38:43;0.10;;;0.10;;
59984;SDS011;45843;47.532;18.660;2022-12-24T04:41:12;0.10;;;0.10;;
59984;SDS011;45843;47.532;18.660;2022-12-24T04:43:38;0.20;;;0.20;;
59984;SDS011;45843;47.532;18.660;2022-12-24T04:46:06;0.13;;;0.13;;
59984;SDS011;45843;47.532;18.660;2022-12-24T04:48:33;0.20;;;0.20;;
59984;SDS011;45843;47.532;18.660;2022-12-24T04:51:00;0.10;;;0.10;;
59984;SDS011;45843;47.532;18.660;2022-12-24T04:53:27;0.10;;;0.10;;
59984;SDS011;45843;47.532;18.660;2022-12-24T04:55:54;0.15;;;0.15;;
59984;SDS011;45843;47.532;18.660;2022-12-24T04:58:21;0.10;;;0.10;;
59984;SDS011;45843;47.532;18.660;2022-12-24T05:00:48;0.10;;;0.10;;
59984;SDS011;45843;47.532;18.660;2022-12-24T05:03:55;0.10;;;0.10;;
59984;SDS011;45843;47.532;18.660;2022-12-24T05:07:01;0.10;;;0.10;;
59984;SDS011;45843;47.532;18.660;2022-12-24T05:10:07;0.10;;;0.10;;
59984;SDS011;45843;47.532;18.660;2022-12-24T05:13:13;0.10;;;0.10;;
59984;SDS011;45843;47.532;18.660;2022-12-24T05:16:20;0.20;;;0.20;;
59984;SDS011;45843;47.532;18.660;2022-12-24T05:19:26;0.15;;;0.15;;
59984;SDS011;45843;47.532;18.660;2022-12-24T05:21:52;0.10;;;0.10;;
59984;SDS011;45843;47.532;18.660;2022-12-24T05:24:37;0.10;;;0.10;;
59984;SDS011;45843;47.532;18.660;2022-12-24T05:27:22;0.10;;;0.10;;
59984;SDS011;45843;47.532;18.660;2022-12-24T05:29:48;0.00;;;0.00;;
59984;SDS011;45843;47.532;18.660;2022-12-24T05:32:15;0.10;;;0.10;;
59984;SDS011;45843;47.532;18.660;2022-12-24T05:34:41;0.15;;;0.15;;
59984;SDS011;45843;47.532;18.660;2022-12-24T05:37:08;0.20;;;0.20;;
59984;SDS011;45843;47.532;18.660;2022-12-24T05:39:34;0.05;;;0.05;;
59984;SDS011;45843;47.532;18.660;2022-12-24T05:42:00;0.10;;;0.10;;
59984;SDS011;45843;47.532;18.660;2022-12-24T05:44:27;0.10;;;0.10;;
59984;SDS011;45843;47.532;18.660;2022-12-24T05:46:54;0.10;;;0.10;;
59984;SDS011;45843;47.532;18.660;2022-12-24T05:49:20;0.10;;;0.10;;
59984;SDS011;45843;47.532;18.660;2022-12-24T05:51:47;0.10;;;0.10;;
59984;SDS011;45843;47.532;18.660;2022-12-24T05:54:13;0.00;;;0.00;;
59984;SDS011;45843;47.532;18.660;2022-12-24T05:56:40;0.10;;;0.10;;
59984;SDS011;45843;47.532;18.660;2022-12-24T05:59:06;0.10;;;0.10;;
59984;SDS011;45843;47.532;18.660;2022-12-24T06:01:33;0.10;;;0.10;;
59984;SDS011;45843;47.532;18.660;2022-12-24T06:03:59;0.10;;;0.10;;
59984;SDS011;45843;47.532;18.660;2022-12-24T06:06:26;0.00;;;0.00;;
59984;SDS011;45843;47.532;18.660;2022-12-24T06:08:53;0.10;;;0.10;;
59984;SDS011;45843;47.532;18.660;2022-12-24T06:11:21;0.08;;;0.08;;
59984;SDS011;45843;47.532;18.660;2022-12-24T06:13:47;0.03;;;0.03;;
59984;SDS011;45843;47.532;18.660;2022-12-24T06:16:16;0.10;;;0.10;;
59984;SDS011;45843;47.532;18.660;2022-12-24T06:18:42;0.15;;;0.15;;
59984;SDS011;45843;47.532;18.660;2022-12-24T06:21:09;0.10;;;0.10;;
59984;SDS011;45843;47.532;18.660;2022-12-24T06:23:36;0.00;;;0.00;;
59984;SDS011;45843;47.532;18.660;2022-12-24T06:26:42;0.03;;;0.03;;
59984;SDS011;45843;47.532;18.660;2022-12-24T06:29:48;0.00;;;0.00;;
59984;SDS011;45843;47.532;18.660;2022-12-24T06:32:54;0.00;;;0.00;;
59984;SDS011;45843;47.532;18.660;2022-12-24T06:36:01;0.10;;;0.10;;
59984;SDS011;45843;47.532;18.660;2022-12-24T06:39:07;0.10;;;0.10;;
59984;SDS011;45843;47.532;18.660;2022-12-24T06:42:12;0.10;;;0.10;;
59984;SDS011;45843;47.532;18.660;2022-12-24T06:45:18;0.00;;;0.00;;
59984;SDS011;45843;47.532;18.660;2022-12-24T06:48:24;0.20;;;0.20;;
59984;SDS011;45843;47.532;18.660;2022-12-24T06:51:31;0.10;;;0.10;;
59984;SDS011;45843;47.532;18.660;2022-12-24T06:54:37;0.20;;;0.20;;
59984;SDS011;45843;47.532;18.660;2022-12-24T06:57:43;0.10;;;0.10;;
59984;SDS011;45843;47.532;18.660;2022-12-24T07:00:49;0.10;;;0.10;;
59984;SDS011;45843;47.532;18.660;2022-12-24T07:03:55;0.00;;;0.00;;
59984;SDS011;45843;47.532;18.660;2022-12-24T07:07:02;0.20;;;0.20;;
59984;SDS011;45843;47.532;18.660;2022-12-24T07:10:12;0.10;;;0.10;;
59984;SDS011;45843;47.532;18.660;2022-12-24T07:13:17;0.00;;;0.00;;
59984;SDS011;45843;47.532;18.660;2022-12-24T07:16:23;0.00;;;0.00;;
59984;SDS011;45843;47.532;18.660;2022-12-24T07:19:30;0.08;;;0.08;;
59984;SDS011;45843;47.532;18.660;2022-12-24T07:21:56;0.05;;;0.05;;
59984;SDS011;45843;47.532;18.660;2022-12-24T07:24:22;0.00;;;0.00;;
59984;SDS011;45843;47.532;18.660;2022-12-24T07:26:49;0.00;;;0.00;;
59984;SDS011;45843;47.532;18.660;2022-12-24T07:29:15;0.00;;;0.00;;
59984;SDS011;45843;47.532;18.660;2022-12-24T07:31:42;0.00;;;0.00;;
59984;SDS011;45843;47.532;18.660;2022-12-24T07:34:09;0.00;;;0.00;;
59984;SDS011;45843;47.532;18.660;2022-12-24T07:36:35;0.00;;;0.00;;
59984;SDS011;45843;47.532;18.660;2022-12-24T07:39:01;0.08;;;0.08;;
59984;SDS011;45843;47.532;18.660;2022-12-24T07:41:28;0.00;;;0.00;;
59984;SDS011;45843;47.532;18.660;2022-12-24T07:43:54;0.28;;;0.10;;
59984;SDS011;45843;47.532;18.660;2022-12-24T07:46:21;0.00;;;0.00;;
59984;SDS011;45843;47.532;18.660;2022-12-24T07:48:47;0.03;;;0.03;;
59984;SDS011;45843;47.532;18.660;2022-12-24T07:51:13;0.00;;;0.00;;
59984;SDS011;45843;47.532;18.660;2022-12-24T07:53:40;0.00;;;0.00;;
59984;SDS011;45843;47.532;18.660;2022-12-24T07:56:12;0.00;;;0.00;;
59984;SDS011;45843;47.532;18.660;2022-12-24T07:58:39;0.10;;;0.10;;
59984;SDS011;45843;47.532;18.660;2022-12-24T08:01:06;0.10;;;0.10;;
59984;SDS011;45843;47.532;18.660;2022-12-24T08:03:32;0.10;;;0.10;;
59984;SDS011;45843;47.532;18.660;2022-12-24T08:05:59;0.00;;;0.00;;
59984;SDS011;45843;47.532;18.660;2022-12-24T08:08:25;0.00;;;0.00;;
59984;SDS011;45843;47.532;18.660;2022-12-24T08:10:51;0.10;;;0.10;;
59984;SDS011;45843;47.532;18.660;2022-12-24T08:13:58;0.10;;;0.10;;
59984;SDS011;45843;47.532;18.660;2022-12-24T08:17:05;0.10;;;0.10;;
59984;SDS011;45843;47.532;18.660;2022-12-24T08:20:11;0.10;;;0.10;;
59984;SDS011;45843;47.532;18.660;2022-12-24T08:22:41;0.08;;;0.08;;
59984;SDS011;45843;47.532;18.660;2022-12-24T08:25:08;0.00;;;0.00;;
59984;SDS011;45843;47.532;18.660;2022-12-24T08:27:34;0.10;;;0.10;;
59984;SDS011;45843;47.532;18.660;2022-12-24T08:30:41;0.00;;;0.00;;
59984;SDS011;45843;47.532;18.660;2022-12-24T08:33:47;0.10;;;0.10;;
59984;SDS011;45843;47.532;18.660;2022-12-24T08:36:53;0.10;;;0.10;;
59984;SDS011;45843;47.532;18.660;2022-12-24T08:39:19;0.00;;;0.00;;
59984;SDS011;45843;47.532;18.660;2022-12-24T08:41:46;0.10;;;0.10;;
59984;SDS011;45843;47.532;18.660;2022-12-24T08:44:12;0.00;;;0.00;;
59984;SDS011;45843;47.532;18.660;2022-12-24T08:46:39;0.10;;;0.10;;
59984;SDS011;45843;47.532;18.660;2022-12-24T08:49:05;0.10;;;0.10;;
59984;SDS011;45843;47.532;18.660;2022-12-24T08:51:32;0.00;;;0.00;;
59984;SDS011;45843;47.532;18.660;2022-12-24T08:53:58;0.05;;;0.05;;
59984;SDS011;45843;47.532;18.660;2022-12-24T08:56:25;0.08;;;0.08;;
59984;SDS011;45843;47.532;18.660;2022-12-24T08:58:51;0.00;;;0.00;;
59984;SDS011;45843;47.532;18.660;2022-12-24T09:01:18;0.03;;;0.03;;
59984;SDS011;45843;47.532;18.660;2022-12-24T09:03:45;0.10;;;0.10;;
59984;SDS011;45843;47.532;18.660;2022-12-24T09:06:12;0.00;;;0.00;;
59984;SDS011;45843;47.532;18.660;2022-12-24T09:08:38;0.00;;;0.00;;
59984;SDS011;45843;47.532;18.660;2022-12-24T09:11:15;0.05;;;0.05;;
59984;SDS011;45843;47.532;18.660;2022-12-24T09:13:42;0.00;;;0.00;;
59984;SDS011;45843;47.532;18.660;2022-12-24T09:16:09;0.00;;;0.00;;
59984;SDS011;45843;47.532;18.660;2022-12-24T09:18:36;0.05;;;0.05;;
59984;SDS011;45843;47.532;18.660;2022-12-24T09:21:03;0.08;;;0.08;;
59984;SDS011;45843;47.532;18.660;2022-12-24T09:23:30;0.10;;;0.10;;
59984;SDS011;45843;47.532;18.660;2022-12-24T09:26:36;0.10;;;0.10;;
59984;SDS011;45843;47.532;18.660;2022-12-24T09:29:44;0.00;;;0.00;;
59984;SDS011;45843;47.532;18.660;2022-12-24T09:32:50;0.10;;;0.10;;
59984;SDS011;45843;47.532;18.660;2022-12-24T09:35:39;0.00;;;0.00;;
59984;SDS011;45843;47.532;18.660;2022-12-24T09:38:46;0.00;;;0.00;;
59984;SDS011;45843;47.532;18.660;2022-12-24T09:48:08;0.03;;;0.03;;
59984;SDS011;45843;47.532;18.660;2022-12-24T09:51:15;0.00;;;0.00;;
59984;SDS011;45843;47.532;18.660;2022-12-24T09:54:22;0.03;;;0.03;;
59984;SDS011;45843;47.532;18.660;2022-12-24T09:57:27;0.00;;;0.00;;
59984;SDS011;45843;47.532;18.660;2022-12-24T10:00:34;0.00;;;0.00;;
59984;SDS011;45843;47.532;18.660;2022-12-24T10:03:39;0.10;;;0.10;;
59984;SDS011;45843;47.532;18.660;2022-12-24T10:06:51;0.00;;;0.00;;
59984;SDS011;45843;47.532;18.660;2022-12-24T10:22:00;0.10;;;0.10;;
59984;SDS011;45843;47.532;18.660;2022-12-24T10:24:30;0.00;;;0.00;;
59984;SDS011;45843;47.532;18.660;2022-12-24T10:27:05;0.00;;;0.00;;
59984;SDS011;45843;47.532;18.660;2022-12-24T10:29:35;0.00;;;0.00;;
59984;SDS011;45843;47.532;18.660;2022-12-24T10:34:37;0.13;;;0.10;;
59984;SDS011;45843;47.532;18.660;2022-12-24T10:37:05;0.00;;;0.00;;
59984;SDS011;45843;47.532;18.660;2022-12-24T10:39:31;0.10;;;0.10;;
59984;SDS011;45843;47.532;18.660;2022-12-24T10:41:58;0.00;;;0.00;;
59984;SDS011;45843;47.532;18.660;2022-12-24T10:44:27;0.00;;;0.00;;
59984;SDS011;45843;47.532;18.660;2022-12-24T10:46:56;0.00;;;0.00;;
59984;SDS011;45843;47.532;18.660;2022-12-24T10:52:14;0.10;;;0.10;;
59984;SDS011;45843;47.532;18.660;2022-12-24T10:57:55;0.00;;;0.00;;
59984;SDS011;45843;47.532;18.660;2022-12-24T11:00:52;0.00;;;0.00;;
59984;SDS011;45843;47.532;18.660;2022-12-24T11:03:59;0.00;;;0.00;;
59984;SDS011;45843;47.532;18.660;2022-12-24T11:07:05;0.03;;;0.03;;
59984;SDS011;45843;47.532;18.660;2022-12-24T11:10:12;0.00;;;0.00;;
59984;SDS011;45843;47.532;18.660;2022-12-24T11:16:52;0.05;;;0.05;;
59984;SDS011;45843;47.532;18.660;2022-12-24T11:19:54;0.00;;;0.00;;
59984;SDS011;45843;47.532;18.660;2022-12-24T11:22:25;0.10;;;0.10;;
59984;SDS011;45843;47.532;18.660;2022-12-24T11:24:56;0.05;;;0.05;;
59984;SDS011;45843;47.532;18.660;2022-12-24T11:27:40;0.00;;;0.00;;
59984;SDS011;45843;47.532;18.660;2022-12-24T11:32:41;0.00;;;0.00;;
59984;SDS011;45843;47.532;18.660;2022-12-24T11:35:13;0.00;;;0.00;;
59984;SDS011;45843;47.532;18.660;2022-12-24T11:38:24;0.00;;;0.00;;
59984;SDS011;45843;47.532;18.660;2022-12-24T11:41:34;0.10;;;0.10;;
59984;SDS011;45843;47.532;18.660;2022-12-24T11:44:36;0.10;;;0.10;;
59984;SDS011;45843;47.532;18.660;2022-12-24T11:47:42;0.00;;;0.00;;
59984;SDS011;45843;47.532;18.660;2022-12-24T11:50:54;0.00;;;0.00;;
59984;SDS011;45843;47.532;18.660;2022-12-24T11:54:00;0.00;;;0.00;;
59984;SDS011;45843;47.532;18.660;2022-12-24T11:57:04;0.00;;;0.00;;
59984;SDS011;45843;47.532;18.660;2022-12-24T12:00:10;0.00;;;0.00;;
59984;SDS011;45843;47.532;18.660;2022-12-24T12:03:39;0.03;;;0.03;;
59984;SDS011;45843;47.532;18.660;2022-12-24T12:06:27;0.10;;;0.10;;
59984;SDS011;45843;47.532;18.660;2022-12-24T12:09:33;0.00;;;0.00;;
59984;SDS011;45843;47.532;18.660;2022-12-24T12:12:42;0.10;;;0.10;;
59984;SDS011;45843;47.532;18.660;2022-12-24T12:15:48;0.00;;;0.00;;
59984;SDS011;45843;47.532;18.660;2022-12-24T12:18:58;0.00;;;0.00;;
59984;SDS011;45843;47.532;18.660;2022-12-24T12:21:27;0.00;;;0.00;;
59984;SDS011;45843;47.532;18.660;2022-12-24T12:24:02;0.00;;;0.00;;
59984;SDS011;45843;47.532;18.660;2022-12-24T12:26:30;0.00;;;0.00;;
59984;SDS011;45843;47.532;18.660;2022-12-24T12:29:39;0.00;;;0.00;;
59984;SDS011;45843;47.532;18.660;2022-12-24T12:32:10;0.10;;;0.10;;
59984;SDS011;45843;47.532;18.660;2022-12-24T12:34:43;0.00;;;0.00;;
59984;SDS011;45843;47.532;18.660;2022-12-24T12:37:13;0.00;;;0.00;;
59984;SDS011;45843;47.532;18.660;2022-12-24T12:39:40;0.00;;;0.00;;
59984;SDS011;45843;47.532;18.660;2022-12-24T12:56:01;0.00;;;0.00;;
59984;SDS011;45843;47.532;18.660;2022-12-24T13:01:20;0.00;;;0.00;;
59984;SDS011;45843;47.532;18.660;2022-12-24T13:18:29;0.00;;;0.00;;
59984;SDS011;45843;47.532;18.660;2022-12-24T13:20:58;0.00;;;0.00;;
59984;SDS011;45843;47.532;18.660;2022-12-24T13:24:14;0.00;;;0.00;;
59984;SDS011;45843;47.532;18.660;2022-12-24T13:27:16;0.08;;;0.08;;
59984;SDS011;45843;47.532;18.660;2022-12-24T13:30:37;0.10;;;0.10;;
59984;SDS011;45843;47.532;18.660;2022-12-24T13:39:59;0.10;;;0.10;;
59984;SDS011;45843;47.532;18.660;2022-12-24T13:42:45;0.00;;;0.00;;
59984;SDS011;45843;47.532;18.660;2022-12-24T13:45:50;0.00;;;0.00;;
59984;SDS011;45843;47.532;18.660;2022-12-24T13:48:57;0.00;;;0.00;;
59984;SDS011;45843;47.532;18.660;2022-12-24T13:57:43;0.00;;;0.00;;
59984;SDS011;45843;47.532;18.660;2022-12-24T14:03:41;0.10;;;0.10;;
59984;SDS011;45843;47.532;18.660;2022-12-24T14:06:47;0.10;;;0.10;;
59984;SDS011;45843;47.532;18.660;2022-12-24T14:09:53;0.20;;;0.20;;
59984;SDS011;45843;47.532;18.660;2022-12-24T14:12:59;0.00;;;0.00;;
59984;SDS011;45843;47.532;18.660;2022-12-24T14:16:11;0.00;;;0.00;;
59984;SDS011;45843;47.532;18.660;2022-12-24T14:19:24;0.00;;;0.00;;
59984;SDS011;45843;47.532;18.660;2022-12-24T14:24:40;0.10;;;0.10;;
59984;SDS011;45843;47.532;18.660;2022-12-24T14:27:45;0.00;;;0.00;;
59984;SDS011;45843;47.532;18.660;2022-12-24T14:30:59;0.10;;;0.10;;
59984;SDS011;45843;47.532;18.660;2022-12-24T14:34:11;0.00;;;0.00;;
59984;SDS011;45843;47.532;18.660;2022-12-24T14:37:11;0.00;;;0.00;;
59984;SDS011;45843;47.532;18.660;2022-12-24T14:40:19;0.00;;;0.00;;
59984;SDS011;45843;47.532;18.660;2022-12-24T14:52:21;0.00;;;0.00;;
59984;SDS011;45843;47.532;18.660;2022-12-24T14:55:27;0.13;;;0.13;;
59984;SDS011;45843;47.532;18.660;2022-12-24T14:58:36;0.10;;;0.10;;
59984;SDS011;45843;47.532;18.660;2022-12-24T15:01:39;0.08;;;0.08;;
59984;SDS011;45843;47.532;18.660;2022-12-24T15:04:46;0.08;;;0.08;;
59984;SDS011;45843;47.532;18.660;2022-12-24T15:07:55;0.08;;;0.08;;
59984;SDS011;45843;47.532;18.660;2022-12-24T15:12:49;0.10;;;0.10;;
59984;SDS011;45843;47.532;18.660;2022-12-24T15:15:16;0.00;;;0.00;;
59984;SDS011;45843;47.532;18.660;2022-12-24T15:17:43;0.00;;;0.00;;
59984;SDS011;45843;47.532;18.660;2022-12-24T15:20:17;0.10;;;0.10;;
59984;SDS011;45843;47.532;18.660;2022-12-24T15:22:44;0.00;;;0.00;;
59984;SDS011;45843;47.532;18.660;2022-12-24T15:25:50;0.10;;;0.10;;
59984;SDS011;45843;47.532;18.660;2022-12-24T15:28:16;0.20;;;0.20;;
59984;SDS011;45843;47.532;18.660;2022-12-24T15:30:44;0.35;;;0.35;;
59984;SDS011;45843;47.532;18.660;2022-12-24T15:33:10;0.35;;;0.35;;
59984;SDS011;45843;47.532;18.660;2022-12-24T15:35:52;0.20;;;0.20;;
59984;SDS011;45843;47.532;18.660;2022-12-24T15:38:27;0.22;;;0.22;;
59984;SDS011;45843;47.532;18.660;2022-12-24T15:41:36;0.30;;;0.30;;
59984;SDS011;45843;47.532;18.660;2022-12-24T15:45:04;0.00;;;0.00;;
59984;SDS011;45843;47.532;18.660;2022-12-24T15:48:09;0.08;;;0.08;;
59984;SDS011;45843;47.532;18.660;2022-12-24T15:51:20;0.00;;;0.00;;
59984;SDS011;45843;47.532;18.660;2022-12-24T15:54:21;0.00;;;0.00;;
59984;SDS011;45843;47.532;18.660;2022-12-24T15:57:31;0.05;;;0.05;;
59984;SDS011;45843;47.532;18.660;2022-12-24T16:00:36;0.00;;;0.00;;
59984;SDS011;45843;47.532;18.660;2022-12-24T16:06:52;0.00;;;0.00;;
59984;SDS011;45843;47.532;18.660;2022-12-24T16:09:56;0.05;;;0.05;;
59984;SDS011;45843;47.532;18.660;2022-12-24T16:13:09;0.00;;;0.00;;
59984;SDS011;45843;47.532;18.660;2022-12-24T16:16:13;0.00;;;0.00;;
59984;SDS011;45843;47.532;18.660;2022-12-24T16:19:29;0.10;;;0.10;;
59984;SDS011;45843;47.532;18.660;2022-12-24T16:22:11;0.00;;;0.00;;
59984;SDS011;45843;47.532;18.660;2022-12-24T16:27:47;0.00;;;0.00;;
59984;SDS011;45843;47.532;18.660;2022-12-24T16:30:16;0.00;;;0.00;;
59984;SDS011;45843;47.532;18.660;2022-12-24T16:33:22;0.00;;;0.00;;
59984;SDS011;45843;47.532;18.660;2022-12-24T16:36:28;0.10;;;0.10;;
59984;SDS011;45843;47.532;18.660;2022-12-24T16:39:34;0.10;;;0.10;;
59984;SDS011;45843;47.532;18.660;2022-12-24T16:42:40;0.10;;;0.10;;
59984;SDS011;45843;47.532;18.660;2022-12-24T16:45:46;0.05;;;0.05;;
59984;SDS011;45843;47.532;18.660;2022-12-24T16:48:52;0.20;;;0.20;;
59984;SDS011;45843;47.532;18.660;2022-12-24T16:51:58;0.10;;;0.10;;
59984;SDS011;45843;47.532;18.660;2022-12-24T16:55:04;0.10;;;0.10;;
59984;SDS011;45843;47.532;18.660;2022-12-24T16:58:11;0.08;;;0.08;;
59984;SDS011;45843;47.532;18.660;2022-12-24T17:01:17;0.00;;;0.00;;
59984;SDS011;45843;47.532;18.660;2022-12-24T17:04:23;0.00;;;0.00;;
59984;SDS011;45843;47.532;18.660;2022-12-24T17:07:29;0.10;;;0.10;;
59984;SDS011;45843;47.532;18.660;2022-12-24T17:10:35;0.10;;;0.10;;
59984;SDS011;45843;47.532;18.660;2022-12-24T17:13:42;0.10;;;0.10;;
59984;SDS011;45843;47.532;18.660;2022-12-24T17:16:48;0.10;;;0.10;;
59984;SDS011;45843;47.532;18.660;2022-12-24T17:19:54;0.00;;;0.00;;
59984;SDS011;45843;47.532;18.660;2022-12-24T17:22:21;0.05;;;0.05;;
59984;SDS011;45843;47.532;18.660;2022-12-24T17:25:27;0.00;;;0.00;;
59984;SDS011;45843;47.532;18.660;2022-12-24T17:28:33;0.00;;;0.00;;
59984;SDS011;45843;47.532;18.660;2022-12-24T17:31:40;0.10;;;0.10;;
59984;SDS011;45843;47.532;18.660;2022-12-24T17:34:46;0.00;;;0.00;;
59984;SDS011;45843;47.532;18.660;2022-12-24T17:37:52;0.10;;;0.10;;
59984;SDS011;45843;47.532;18.660;2022-12-24T17:40:59;0.20;;;0.20;;
59984;SDS011;45843;47.532;18.660;2022-12-24T17:44:05;0.32;;;0.32;;
59984;SDS011;45843;47.532;18.660;2022-12-24T17:47:11;0.35;;;0.35;;
59984;SDS011;45843;47.532;18.660;2022-12-24T17:50:17;0.30;;;0.30;;
59984;SDS011;45843;47.532;18.660;2022-12-24T17:53:23;0.20;;;0.20;;
59984;SDS011;45843;47.532;18.660;2022-12-24T17:55:52;0.13;;;0.13;;
59984;SDS011;45843;47.532;18.660;2022-12-24T17:58:59;0.00;;;0.00;;
59984;SDS011;45843;47.532;18.660;2022-12-24T18:01:46;0.30;;;0.30;;
59984;SDS011;45843;47.532;18.660;2022-12-24T18:04:12;0.10;;;0.10;;
59984;SDS011;45843;47.532;18.660;2022-12-24T18:06:39;0.20;;;0.20;;
59984;SDS011;45843;47.532;18.660;2022-12-24T18:09:05;0.30;;;0.30;;
59984;SDS011;45843;47.532;18.660;2022-12-24T18:11:32;0.10;;;0.10;;
59984;SDS011;45843;47.532;18.660;2022-12-24T18:13:59;0.00;;;0.00;;
59984;SDS011;45843;47.532;18.660;2022-12-24T18:16:28;0.20;;;0.20;;
59984;SDS011;45843;47.532;18.660;2022-12-24T18:18:55;0.10;;;0.10;;